Time;durP1;ratioP1;P1;durP2;ratioP2;P2;SDS_P1;SDS_P2;PMS_P1;PMS_P2;Temp;Humidity;BMP_temperature;BMP_pressure;BME280_temperature;BME280_humidity;BME280_pressure;Samples;Min_cycle;Max_cycle;Signal;HPM_P1;HPM_P2
2023/01/03 00:00:05;;;;;;;2.30;1.60;;;;;;;8.65;nan;101621.50;5030056;28;19948;-85
2023/01/03 00:02:32;;;;;;;1.70;1.40;;;;;;;8.64;nan;101619.81;5018840;28;20048;-85
2023/01/03 00:04:57;;;;;;;;;;;;;;;8.56;nan;101619.53;5037078;28;20136;-86
2023/01/03 00:07:35;;;;;;;2.23;1.60;;;;;;;8.56;nan;101634.53;5020863;28;19940;-86
2023/01/03 00:10:09;;;;;;;2.03;1.60;;;;;;;8.65;nan;101632.06;5032870;28;20407;-85
2023/01/03 00:12:36;;;;;;;2.00;1.48;;;;;;;8.61;nan;101635.03;5027415;28;20294;-84
2023/01/03 00:15:02;;;;;;;2.08;1.50;;;;;;;8.55;nan;101638.94;5018441;28;20034;-85
2023/01/03 00:17:28;;;;;;;2.43;1.80;;;;;;;8.70;nan;101647.53;5011345;28;20407;-85
2023/01/03 00:19:53;;;;;;;3.00;2.00;;;;;;;8.62;nan;101642.81;5022437;28;20029;-85
2023/01/03 00:22:19;;;;;;;2.78;1.60;;;;;;;8.73;nan;101636.75;5043797;28;20928;-84
2023/01/03 00:24:45;;;;;;;;;;;;;;;8.62;nan;101641.97;5021576;28;20053;-85
2023/01/03 00:27:12;;;;;;;2.03;1.60;;;;;;;8.57;nan;101649.38;5034534;28;19921;-84
2023/01/03 00:29:37;;;;;;;4.00;1.83;;;;;;;8.52;nan;101638.34;5032289;28;20037;-84
2023/01/03 00:32:03;;;;;;;;;;;;;;;8.46;nan;101645.72;5033997;28;20037;-84
2023/01/03 00:34:29;;;;;;;2.83;1.90;;;;;;;8.38;nan;101648.03;5031666;28;19921;-84
2023/01/03 00:36:54;;;;;;;2.10;1.52;;;;;;;8.26;nan;101641.00;5033906;28;20064;-84
2023/01/03 00:39:20;;;;;;;3.45;1.70;;;;;;;8.17;nan;101642.50;5016571;28;20033;-84
2023/01/03 00:41:45;;;;;;;2.45;1.85;;;;;;;8.08;nan;101651.06;5024359;28;20045;-84
2023/01/03 00:44:11;;;;;;;2.70;1.80;;;;;;;7.98;nan;101642.94;5031079;28;20033;-84
2023/01/03 00:46:36;;;;;;;;;;;;;;;7.89;nan;101646.25;5014628;28;20048;-85
2023/01/03 00:49:03;;;;;;;3.00;2.00;;;;;;;7.82;nan;101647.63;5030015;28;20024;-84
2023/01/03 00:51:30;;;;;;;;;;;;;;;7.76;nan;101648.03;5022595;28;20034;-84
2023/01/03 00:53:56;;;;;;;;;;;;;;;7.66;nan;101650.47;5014191;28;20289;-84
2023/01/03 00:56:25;;;;;;;3.30;2.20;;;;;;;7.60;nan;101653.50;5013895;28;19968;-88
2023/01/03 00:58:51;;;;;;;3.67;2.20;;;;;;;7.49;nan;101658.66;5006526;28;20034;-85
2023/01/03 01:01:20;;;;;;;2.85;2.20;;;;;;;7.40;nan;101655.69;5032951;28;20079;-86
2023/01/03 01:03:48;;;;;;;3.08;2.30;;;;;;;7.34;nan;101658.75;5032899;28;20029;-86
2023/01/03 01:06:41;;;;;;;3.08;2.15;;;;;;;7.28;nan;101659.16;5015247;28;20120;-86
2023/01/03 01:09:10;;;;;;;3.05;2.38;;;;;;;7.39;nan;101661.91;5012937;28;20403;-85
2023/01/03 01:11:35;;;;;;;3.47;2.42;;;;;;;7.31;nan;101666.84;5034670;28;20036;-85
2023/01/03 01:14:00;;;;;;;3.50;2.50;;;;;;;7.38;nan;101662.00;5019170;28;20419;-86
2023/01/03 01:16:28;;;;;;;3.33;2.40;;;;;;;7.28;nan;101667.03;5020743;28;20693;-87
2023/01/03 01:18:54;;;;;;;3.92;2.75;;;;;;;7.21;nan;101673.66;5038613;28;20052;-85
2023/01/03 01:21:24;;;;;;;3.80;2.50;;;;;;;7.15;nan;101671.41;5019134;28;20397;-86
2023/01/03 01:23:49;;;;;;;3.70;2.70;;;;;;;7.12;nan;101680.38;5036927;28;20431;-86
2023/01/03 01:26:18;;;;;;;4.68;2.40;;;;;;;7.07;nan;101676.34;5017125;28;20035;-86
2023/01/03 01:28:43;;;;;;;3.60;2.53;;;;;;;7.04;nan;101676.56;5019408;28;20149;-87
2023/01/03 01:31:12;;;;;;;3.47;2.63;;;;;;;6.98;nan;101680.44;5034557;28;20030;-86
2023/01/03 01:33:37;;;;;;;3.50;2.55;;;;;;;6.87;nan;101681.13;5035951;28;20093;-86
2023/01/03 01:36:36;;;;;;;4.15;2.83;;;;;;;6.75;nan;101677.50;5036853;28;20572;-86
2023/01/03 01:39:12;;;;;;;3.88;2.72;;;;;;;6.72;nan;101684.72;5035576;28;20037;-86
2023/01/03 01:44:57;;;;;;;;;;;;;;;6.67;nan;101673.69;5036499;28;20163;-86
2023/01/03 01:47:45;;;;;;;4.10;2.72;;;;;;;6.67;nan;101681.56;4994623;28;20375;-87
2023/01/03 01:50:35;;;;;;;3.63;2.60;;;;;;;6.62;nan;101691.53;5004851;28;20048;-87
2023/01/03 01:53:27;;;;;;;3.72;2.75;;;;;;;6.59;nan;101688.16;5014352;28;20042;-86
2023/01/03 01:56:17;;;;;;;5.80;3.05;;;;;;;6.57;nan;101686.56;5010133;28;20575;-86
2023/01/03 01:58:57;;;;;;;4.25;3.03;;;;;;;6.61;nan;101701.22;5021212;28;20414;-86
2023/01/03 02:01:33;;;;;;;3.63;2.65;;;;;;;6.58;nan;101697.00;5018307;28;20037;-86
2023/01/03 02:04:18;;;;;;;3.80;2.40;;;;;;;6.53;nan;101712.22;5019399;28;20052;-86
2023/01/03 02:06:44;;;;;;;3.88;2.40;;;;;;;6.46;nan;101696.91;5032800;28;20065;-88
2023/01/03 02:09:10;;;;;;;4.20;2.97;;;;;;;6.43;nan;101697.09;5033570;28;20030;-88
2023/01/03 02:15:17;;;;;;;4.78;3.22;;;;;;;6.49;nan;101704.63;5017315;28;20043;-87
2023/01/03 02:18:27;;;;;;;4.28;3.10;;;;;;;6.49;nan;101700.19;5034111;28;20210;-87
2023/01/03 02:21:05;;;;;;;4.80;3.22;;;;;;;6.49;nan;101701.97;5023658;28;20129;-87
2023/01/03 02:23:42;;;;;;;5.20;3.30;;;;;;;6.47;nan;101702.06;5013918;28;20077;-85
2023/01/03 02:26:18;;;;;;;4.25;3.00;;;;;;;6.46;nan;101694.28;4988970;28;20068;-85
2023/01/03 02:29:15;;;;;;;4.93;3.13;;;;;;;6.44;nan;101697.00;4998927;28;20027;-85
2023/01/03 02:31:46;;;;;;;3.55;2.70;;;;;;;6.40;nan;101692.03;5029341;28;20134;-86
2023/01/03 02:34:40;;;;;;;4.25;3.28;;;;;;;6.41;nan;101691.09;5033180;28;20037;-86
2023/01/03 02:37:39;;;;;;;4.95;2.80;;;;;;;6.38;nan;101692.13;5010229;28;20369;-86
2023/01/03 02:40:20;;;;;;;5.13;2.85;;;;;;;6.37;nan;101690.47;5015234;28;20501;-85
2023/01/03 02:43:04;;;;;;;5.32;3.53;;;;;;;6.37;nan;101693.09;5006454;28;20476;-86
2023/01/03 02:45:58;;;;;;;4.47;3.22;;;;;;;6.36;nan;101694.00;5015095;28;20511;-87
2023/01/03 02:48:52;;;;;;;4.97;3.50;;;;;;;6.35;nan;101692.34;5008402;28;20065;-87
2023/01/03 02:51:47;;;;;;;5.88;3.33;;;;;;;6.31;nan;101694.28;5019246;28;20194;-87
2023/01/03 02:54:25;;;;;;;4.68;3.40;;;;;;;6.32;nan;101701.25;4984142;28;20044;-86
2023/01/03 02:57:05;;;;;;;5.25;3.50;;;;;;;6.32;nan;101690.75;5002946;28;20172;-87
2023/01/03 02:59:42;;;;;;;4.18;3.10;;;;;;;6.32;nan;101698.63;5019869;28;20038;-86
2023/01/03 03:02:15;;;;;;;5.57;3.50;;;;;;;6.31;nan;101689.03;5027691;28;20503;-86
2023/01/03 03:04:47;;;;;;;5.32;3.22;;;;;;;6.33;nan;101694.22;5008741;28;20046;-86
2023/01/03 03:07:28;;;;;;;4.20;3.20;;;;;;;6.31;nan;101688.19;5013011;28;20037;-86
2023/01/03 03:15:42;;;;;;;4.40;3.22;;;;;;;6.31;nan;101694.28;5024223;28;20095;-86
2023/01/03 03:18:26;;;;;;;5.03;3.30;;;;;;;6.33;nan;101699.47;5010011;28;20045;-85
2023/01/03 03:26:43;;;;;;;4.13;3.22;;;;;;;6.37;nan;101719.34;5031589;28;20604;-86
2023/01/03 03:29:17;;;;;;;4.68;2.85;;;;;;;6.35;nan;101716.81;5014409;28;20034;-85
2023/01/03 03:31:47;;;;;;;5.68;2.97;;;;;;;6.39;nan;101717.47;5022977;28;20037;-87
2023/01/03 03:34:31;;;;;;;4.10;2.67;;;;;;;6.37;nan;101727.25;5010045;28;20071;-85
2023/01/03 03:37:06;;;;;;;4.15;2.60;;;;;;;6.40;nan;101724.41;5029293;28;20537;-86
2023/01/03 03:45:53;;;;;;;;;;;;;;;6.40;nan;101724.41;5020232;28;20548;-86
2023/01/03 03:49:36;;;;;;;3.90;2.53;;;;;;;6.37;nan;101745.63;5009288;28;19917;-86
2023/01/03 03:51:31;;;;;;;4.60;2.60;;;;;;;6.40;nan;101734.91;5027781;28;20404;-87
2023/01/03 03:54:12;;;;;;;3.25;2.28;;;;;;;6.41;nan;101735.75;5032602;28;20057;-87
2023/01/03 03:56:54;;;;;;;3.67;2.47;;;;;;;6.38;nan;101739.41;5028680;28;20037;-86
2023/01/03 03:59:26;;;;;;;3.67;2.50;;;;;;;6.32;nan;101735.41;5030800;28;20033;-86
2023/01/03 04:01:59;;;;;;;3.13;2.20;;;;;;;6.32;nan;101735.41;5012816;28;20037;-86
2023/01/03 04:04:39;;;;;;;3.60;2.60;;;;;;;6.33;nan;101744.13;4997798;28;20034;-86
2023/01/03 04:07:25;;;;;;;3.72;2.10;;;;;;;6.32;nan;101743.28;5019776;28;20038;-86
2023/01/03 04:09:52;;;;;;;2.97;2.22;;;;;;;6.35;nan;101742.25;5009803;28;20041;-86
2023/01/03 04:12:18;;;;;;;3.50;2.40;;;;;;;6.34;nan;101740.53;5014457;28;20194;-86
2023/01/03 04:14:46;;;;;;;3.63;2.28;;;;;;;6.37;nan;101729.88;5028296;28;20370;-87
2023/01/03 04:17:23;;;;;;;3.35;2.40;;;;;;;6.37;nan;101732.50;5002670;28;20034;-86
2023/01/03 04:19:52;;;;;;;3.58;2.45;;;;;;;6.35;nan;101739.63;5024523;28;20095;-87
2023/01/03 04:22:19;;;;;;;4.00;2.55;;;;;;;6.34;nan;101740.53;5012762;28;20033;-88
2023/01/03 04:24:47;;;;;;;4.25;2.60;;;;;;;6.32;nan;101742.44;5021119;28;20416;-86
2023/01/03 04:27:12;;;;;;;3.80;2.40;;;;;;;6.29;nan;101748.72;5014387;28;20172;-86
2023/01/03 04:29:38;;;;;;;3.22;2.38;;;;;;;6.29;nan;101737.34;5012134;28;20053;-87
2023/01/03 04:32:06;;;;;;;3.15;2.28;;;;;;;6.25;nan;101738.50;5010409;28;20041;-86
2023/01/03 04:34:37;;;;;;;3.60;2.38;;;;;;;6.21;nan;101745.72;5001571;28;20034;-86
2023/01/03 04:37:08;;;;;;;2.28;1.80;;;;;;;6.18;nan;101745.06;5004064;28;20140;-86
2023/01/03 04:39:36;;;;;;;2.55;1.80;;;;;;;6.12;nan;101746.25;5015656;28;20042;-86
2023/01/03 04:44:00;;;;;;;2.90;1.75;;;;;;;6.08;nan;101748.25;4997903;28;20044;-86
2023/01/03 04:44:50;;;;;;;1.60;1.20;;;;;;;6.02;nan;101751.22;5032438;28;20046;-85
2023/01/03 04:47:22;;;;;;;3.08;1.80;;;;;;;5.95;nan;101750.75;5024557;28;20048;-86
2023/01/03 04:49:50;;;;;;;2.50;1.95;;;;;;;5.97;nan;101755.91;5053022;28;20024;-89
2023/01/03 04:52:16;;;;;;;3.58;1.73;;;;;;;5.99;nan;101753.22;5015479;28;20539;-86
2023/01/03 04:54:59;;;;;;;3.63;2.20;;;;;;;6.04;nan;101743.28;5020265;28;20141;-86
2023/01/03 04:57:25;;;;;;;2.75;2.20;;;;;;;6.06;nan;101752.75;5029444;28;20176;-86
2023/01/03 04:59:50;;;;;;;2.95;2.15;;;;;;;6.08;nan;101755.28;5014113;28;20041;-85
2023/01/03 05:02:20;;;;;;;4.15;2.13;;;;;;;6.09;nan;101762.22;5009825;28;20033;-86
2023/01/03 05:04:51;;;;;;;4.03;2.15;;;;;;;5.98;nan;101754.97;5007557;28;20057;-85
2023/01/03 05:07:25;;;;;;;2.65;2.08;;;;;;;5.91;nan;101759.72;5013706;28;20081;-85
2023/01/03 05:09:51;;;;;;;2.97;1.83;;;;;;;5.89;nan;101750.25;5013312;28;20033;-86
2023/01/03 05:12:19;;;;;;;3.17;2.20;;;;;;;5.92;nan;101750.06;4990323;28;20064;-87
2023/01/03 05:14:47;;;;;;;3.03;2.38;;;;;;;6.08;nan;101748.25;5005363;28;20038;-86
2023/01/03 05:17:12;;;;;;;2.50;2.00;;;;;;;6.16;nan;101748.63;5008808;28;20120;-86
2023/01/03 05:25:48;;;;;;;4.25;2.70;;;;;;;6.14;nan;101757.53;5014677;28;20116;-86
2023/01/03 05:28:00;;;;;;;3.00;2.35;;;;;;;6.12;nan;101759.41;5032832;28;20052;-85
2023/01/03 05:30:31;;;;;;;2.60;2.17;;;;;;;6.09;nan;101756.97;5026717;28;20071;-88
2023/01/03 05:32:57;;;;;;;;;;;;;;;6.04;nan;101761.66;5034258;28;20047;-85
2023/01/03 05:35:22;;;;;;;2.05;1.60;;;;;;;5.95;nan;101768.28;5016879;28;19917;-87
2023/01/03 05:37:47;;;;;;;2.40;1.90;;;;;;;5.91;nan;101769.38;5013277;28;20124;-86
2023/01/03 05:40:23;;;;;;;3.15;1.80;;;;;;;5.80;nan;101761.31;5009473;28;20102;-86
2023/01/03 05:42:48;;;;;;;2.95;2.30;;;;;;;5.67;nan;101766.41;5017276;28;20054;-86
2023/01/03 05:45:13;;;;;;;3.67;2.22;;;;;;;5.62;nan;101773.69;5006926;28;20554;-86
2023/01/03 05:47:39;;;;;;;3.53;2.47;;;;;;;5.58;nan;101778.31;5002082;28;20045;-87
2023/01/03 05:50:07;;;;;;;2.33;1.83;;;;;;;5.51;nan;101774.34;5014428;28;20083;-87
2023/01/03 05:52:36;;;;;;;3.20;2.00;;;;;;;5.43;nan;101773.91;5011950;28;20037;-87
2023/01/03 05:55:01;;;;;;;2.92;1.85;;;;;;;5.37;nan;101771.66;5013119;28;20034;-86
2023/01/03 05:57:27;;;;;;;2.97;1.85;;;;;;;5.44;nan;101763.34;5031523;28;20885;-86
2023/01/03 05:59:52;;;;;;;2.03;1.58;;;;;;;5.35;nan;101776.16;5014220;28;20152;-86
2023/01/03 06:02:20;;;;;;;3.20;2.28;;;;;;;5.25;nan;101774.03;5010191;28;20038;-86
2023/01/03 06:04:54;;;;;;;3.83;2.03;;;;;;;5.20;nan;101772.63;5014696;28;20037;-87
2023/01/03 06:07:22;;;;;;;3.08;2.28;;;;;;;5.17;nan;101770.16;5015784;28;20470;-85
2023/01/03 06:09:48;;;;;;;2.97;1.85;;;;;;;5.13;nan;101766.88;5023934;28;20064;-86
2023/01/03 06:12:18;;;;;;;2.58;1.77;;;;;;;5.15;nan;101769.38;5001607;28;20407;-87
2023/01/03 06:14:46;;;;;;;2.42;1.77;;;;;;;5.04;nan;101768.22;5009114;28;20491;-86
2023/01/03 06:20:04;;;;;;;2.17;1.60;;;;;;;4.89;nan;101758.59;5029840;28;20047;-86
2023/01/03 06:22:33;;;;;;;;;;;;;;;4.83;nan;101779.88;5031247;28;20029;-86
2023/01/03 06:24:58;;;;;;;5.40;2.65;;;;;;;4.71;nan;101781.41;5014274;28;19920;-86
2023/01/03 06:27:24;;;;;;;3.00;2.40;;;;;;;4.69;nan;101780.63;5017815;28;20519;-85
2023/01/03 06:29:52;;;;;;;2.95;2.15;;;;;;;4.66;nan;101780.81;5002436;28;20037;-86
2023/01/03 06:32:17;;;;;;;3.28;2.90;;;;;;;4.53;nan;101785.88;5004828;28;20060;-86
2023/01/03 06:34:43;;;;;;;3.83;2.67;;;;;;;4.53;nan;101783.25;5028461;28;20559;-86
2023/01/03 06:37:11;;;;;;;3.70;2.40;;;;;;;4.49;nan;101780.88;5018072;28;20053;-87
2023/01/03 06:39:42;;;;;;;2.42;2.00;;;;;;;4.50;nan;101786.00;5006661;28;20042;-86
2023/01/03 06:53:20;;;;;;;2.47;1.80;;;;;;;4.34;nan;101786.00;5032130;28;20066;-86
2023/01/03 06:55:48;;;;;;;2.47;1.63;;;;;;;4.30;nan;101791.47;5009286;28;20041;-86
2023/01/03 06:58:19;;;;;;;3.97;2.03;;;;;;;4.24;nan;101793.47;5011695;28;20048;-86
2023/01/03 07:00:45;;;;;;;3.85;2.38;;;;;;;4.19;nan;101795.47;5017861;28;20053;-86
2023/01/03 07:03:10;;;;;;;3.50;2.47;;;;;;;4.20;nan;101804.19;5018415;28;20042;-87
2023/01/03 07:05:38;;;;;;;3.55;2.75;;;;;;;4.21;nan;101805.88;5022441;28;20045;-85
2023/01/03 07:08:06;;;;;;;3.13;2.63;;;;;;;4.22;nan;101802.34;5010446;28;20650;-86
2023/01/03 07:10:31;;;;;;;4.20;2.50;;;;;;;4.20;nan;101807.66;5008472;28;20575;-85
2023/01/03 07:15:48;;;;;;;4.70;2.60;;;;;;;4.23;nan;101817.13;5025394;28;20040;-87
2023/01/03 07:18:21;;;;;;;4.07;3.25;;;;;;;4.25;nan;101810.03;5021817;28;20037;-86
2023/01/03 07:20:46;;;;;;;3.65;2.30;;;;;;;4.24;nan;101817.03;5020398;28;20097;-87
2023/01/03 07:23:17;;;;;;;3.22;2.60;;;;;;;4.23;nan;101815.34;5003106;28;20034;-85
2023/01/03 07:25:43;;;;;;;;;;;;;;;4.18;nan;101821.75;5014184;28;20106;-86
2023/01/03 07:28:18;;;;;;;4.07;2.85;;;;;;;4.17;nan;101823.53;5012178;28;20438;-87
2023/01/03 07:30:45;;;;;;;3.00;2.47;;;;;;;4.18;nan;101832.22;4995995;28;20038;-85
2023/01/03 07:33:17;;;;;;;2.60;2.17;;;;;;;4.18;nan;101837.44;5014711;28;20026;-86
2023/01/03 07:35:48;;;;;;;3.28;2.47;;;;;;;4.15;nan;101842.84;5014673;28;20578;-87
2023/01/03 07:38:13;;;;;;;3.30;2.50;;;;;;;4.17;nan;101844.47;5007088;28;20080;-86
2023/01/03 07:40:41;;;;;;;4.03;2.40;;;;;;;4.17;nan;101840.97;5015855;28;20133;-88
2023/01/03 07:46:08;;;;;;;3.65;2.60;;;;;;;4.21;nan;101850.38;5032278;28;20048;-86
2023/01/03 07:48:35;;;;;;;3.85;2.63;;;;;;;4.23;nan;101849.38;5028270;28;20061;-86
2023/01/03 07:51:00;;;;;;;3.67;2.40;;;;;;;4.24;nan;101852.84;5025165;28;20029;-86
2023/01/03 07:53:27;;;;;;;4.30;2.75;;;;;;;4.24;nan;101858.06;5032612;28;20060;-87
2023/01/03 07:56:39;;;;;;;3.13;2.47;;;;;;;4.26;nan;101854.44;5015982;28;20033;-87
2023/01/03 07:59:08;;;;;;;5.75;3.53;;;;;;;4.28;nan;101857.00;4946916;28;20098;-86
2023/01/03 08:01:33;;;;;;;5.32;3.80;;;;;;;4.31;nan;101864.69;4963183;28;20038;-86
2023/01/03 08:03:58;;;;;;;6.05;4.00;;;;;;;4.30;nan;101862.16;5004140;28;20038;-88
2023/01/03 08:06:44;;;;;;;6.00;4.15;;;;;;;4.30;nan;101856.94;5014994;28;20042;-88
2023/01/03 08:14:43;;;;;;;6.03;3.88;;;;;;;4.25;nan;101865.00;5033041;28;20125;-85
2023/01/03 08:17:08;;;;;;;7.00;3.90;;;;;;;4.26;nan;101870.16;5005225;28;20116;-87
2023/01/03 08:19:34;;;;;;;5.05;3.60;;;;;;;4.29;nan;101873.53;5015756;28;20045;-86
2023/01/03 08:22:02;;;;;;;5.35;3.65;;;;;;;4.26;nan;101874.56;5021574;28;20032;-86
2023/01/03 08:24:30;;;;;;;6.35;4.45;;;;;;;4.25;nan;101872.88;5024022;28;20029;-87
2023/01/03 08:27:11;;;;;;;8.77;5.85;;;;;;;4.27;nan;101881.50;5028638;28;20561;-86
2023/01/03 08:29:45;;;;;;;9.65;6.25;;;;;;;4.28;nan;101883.19;5036569;28;20053;-86
2023/01/03 08:32:22;;;;;;;8.20;5.68;;;;;;;4.28;nan;101888.41;5003039;28;20093;-87
2023/01/03 08:34:48;;;;;;;8.20;5.97;;;;;;;4.24;nan;101886.88;5020480;28;20037;-87
2023/01/03 08:37:15;;;;;;;9.02;5.25;;;;;;;4.21;nan;101882.63;5013139;28;20041;-86
2023/01/03 08:39:51;;;;;;;6.97;4.35;;;;;;;4.22;nan;101886.13;5011058;28;20427;-88
2023/01/03 08:42:22;;;;;;;5.95;3.90;;;;;;;4.23;nan;101887.81;5015944;28;20068;-85
2023/01/03 08:44:52;;;;;;;5.07;3.58;;;;;;;4.22;nan;101880.88;5020204;28;20029;-86
2023/01/03 08:47:18;;;;;;;6.72;4.18;;;;;;;4.22;nan;101899.22;5017182;28;20032;-86
2023/01/03 08:49:48;;;;;;;5.72;4.13;;;;;;;4.19;nan;101900.19;5009407;28;20045;-87
2023/01/03 08:52:14;;;;;;;7.18;4.28;;;;;;;4.17;nan;101909.03;5027185;28;20510;-87
2023/01/03 08:54:44;;;;;;;7.22;4.10;;;;;;;4.14;nan;101910.03;5030782;28;20060;-86
2023/01/03 08:57:09;;;;;;;7.20;4.90;;;;;;;4.21;nan;101916.66;5016997;28;20105;-86
2023/01/03 08:59:35;;;;;;;6.88;4.85;;;;;;;4.28;nan;101922.47;5016879;28;20045;-86
2023/01/03 09:02:02;;;;;;;5.65;4.35;;;;;;;4.35;nan;101920.38;5029675;28;20037;-86
2023/01/03 09:04:33;;;;;;;4.97;3.75;;;;;;;4.40;nan;101924.44;5036941;28;20044;-87
2023/01/03 09:07:01;;;;;;;5.70;3.67;;;;;;;4.47;nan;101927.63;5029080;28;20044;-87
2023/01/03 09:09:26;;;;;;;3.53;2.67;;;;;;;4.49;nan;101933.63;5012356;28;20059;-87
2023/01/03 09:11:51;;;;;;;4.78;2.85;;;;;;;4.55;nan;101935.91;5036689;28;20540;-86
2023/01/03 09:14:19;;;;;;;4.07;2.65;;;;;;;4.62;nan;101942.56;5047439;28;20563;-86
2023/01/03 09:16:48;;;;;;;4.15;2.75;;;;;;;4.68;nan;101939.63;5010735;28;20042;-86
2023/01/03 09:19:18;;;;;;;4.10;2.30;;;;;;;4.74;nan;101945.47;5016880;28;20116;-85
2023/01/03 09:21:46;;;;;;;3.63;2.85;;;;;;;4.78;nan;101944.38;5017082;28;20038;-85
2023/01/03 09:24:14;;;;;;;3.80;2.92;;;;;;;4.81;nan;101945.06;5006501;28;20399;-86
2023/01/03 09:26:40;;;;;;;4.35;3.03;;;;;;;4.94;nan;101933.97;5019452;28;20041;-86
2023/01/03 09:29:08;;;;;;;3.28;2.47;;;;;;;5.06;nan;101936.78;5040423;28;20571;-87
2023/01/03 09:31:43;;;;;;;3.90;2.63;;;;;;;5.19;nan;101936.94;5038492;28;20038;-86
2023/01/03 09:34:13;;;;;;;3.10;2.28;;;;;;;5.35;nan;101941.38;5015082;28;20042;-86
2023/01/03 09:36:39;;;;;;;3.60;2.47;;;;;;;5.47;nan;101940.72;5028604;28;20034;-86
2023/01/03 09:39:09;;;;;;;3.13;2.42;;;;;;;5.60;nan;101938.25;5024792;28;20112;-86
2023/01/03 09:41:37;;;;;;;2.80;2.13;;;;;;;5.67;nan;101937.84;5007341;28;20395;-86
2023/01/03 09:44:05;;;;;;;3.53;2.33;;;;;;;5.80;nan;101934.53;5007304;28;20041;-86
2023/01/03 09:46:35;;;;;;;2.83;2.30;;;;;;;5.90;nan;101928.66;5017319;28;20026;-86
2023/01/03 09:49:07;;;;;;;3.13;2.35;;;;;;;6.00;nan;101933.44;5010406;28;20026;-86
2023/01/03 10:03:56;;;;;;;4.10;3.22;;;;;;;6.62;nan;101928.06;5026417;28;20047;-86
2023/01/03 10:06:42;;;;;;;5.13;3.72;;;;;;;6.76;nan;101930.72;5015142;28;20495;-86
2023/01/03 10:09:34;;;;;;;6.05;3.72;;;;;;;6.88;nan;101932.59;5007469;28;20036;-86
2023/01/03 10:12:18;;;;;;;7.85;4.15;;;;;;;7.06;nan;101927.16;5004411;28;20038;-86
2023/01/03 10:15:14;;;;;;;5.97;4.18;;;;;;;7.25;nan;101919.81;5021420;28;20041;-86
2023/01/03 10:17:50;;;;;;;9.05;4.03;;;;;;;7.42;nan;101927.50;5013506;28;20065;-87
2023/01/03 10:20:36;;;;;;;6.72;3.97;;;;;;;7.60;nan;101927.25;5002595;28;20030;-86
2023/01/03 10:23:03;;;;;;;;;;;;;;;7.68;nan;101929.44;5007386;28;20208;-87
2023/01/03 10:25:36;;;;;;;5.78;3.70;;;;;;;7.78;nan;101917.34;5014363;28;20311;-86
2023/01/03 10:28:31;;;;;;;6.03;3.50;;;;;;;7.87;nan;101919.38;5013704;28;20071;-87
2023/01/03 10:31:31;;;;;;;5.35;3.55;;;;;;;7.96;nan;101923.19;5018783;28;20037;-86
2023/01/03 10:33:58;;;;;;;4.63;3.08;;;;;;;8.02;nan;101920.16;5027031;28;20056;-87
2023/01/03 10:36:24;;;;;;;6.38;3.33;;;;;;;8.09;nan;101916.19;4992472;28;20595;-86
2023/01/03 10:39:07;;;;;;;4.38;3.15;;;;;;;8.16;nan;101917.47;5031225;28;20057;-86
2023/01/03 10:41:42;;;;;;;4.60;3.13;;;;;;;8.22;nan;101911.81;5030687;28;20069;-86
2023/01/03 10:44:22;;;;;;;4.28;3.00;;;;;;;8.34;nan;101911.91;5015786;28;20041;-86
2023/01/03 10:47:12;;;;;;;4.50;2.75;;;;;;;8.42;nan;101904.38;5039325;28;20063;-86
2023/01/03 10:49:43;;;;;;;4.03;2.70;;;;;;;8.54;nan;101913.25;5001529;28;20095;-86
2023/01/03 10:52:17;;;;;;;4.43;2.90;;;;;;;8.64;nan;101917.75;5027603;28;20034;-86
2023/01/03 10:54:51;;;;;;;3.67;2.85;;;;;;;8.67;nan;101920.19;5031581;28;20049;-86
2023/01/03 10:57:47;;;;;;;5.57;2.90;;;;;;;8.72;nan;101914.59;5036137;28;20042;-86
2023/01/03 11:00:25;;;;;;;4.47;2.63;;;;;;;8.74;nan;101914.50;5005399;28;20560;-86
2023/01/03 11:02:51;;;;;;;4.30;2.75;;;;;;;8.82;nan;101904.25;5001546;28;20072;-86
2023/01/03 11:05:25;;;;;;;5.30;3.22;;;;;;;8.89;nan;101910.78;5019034;28;20039;-86
2023/01/03 11:08:03;;;;;;;4.90;2.90;;;;;;;8.95;nan;101913.00;5011924;28;20646;-86
2023/01/03 11:10:51;;;;;;;5.00;3.38;;;;;;;8.98;nan;101902.25;5016868;28;20045;-86
2023/01/03 11:13:38;;;;;;;4.70;3.15;;;;;;;9.02;nan;101903.72;4996827;28;20162;-86
2023/01/03 11:16:18;;;;;;;5.95;2.95;;;;;;;9.07;nan;101898.13;5028626;28;20049;-87
2023/01/03 11:19:03;;;;;;;6.35;3.20;;;;;;;9.05;nan;101897.38;5011007;28;20458;-86
2023/01/03 11:21:41;;;;;;;5.07;3.03;;;;;;;9.12;nan;101891.56;4994743;28;20064;-86
2023/01/03 11:24:31;;;;;;;3.53;2.90;;;;;;;9.12;nan;101888.91;5027760;28;20034;-86
2023/01/03 11:27:10;;;;;;;3.00;2.40;;;;;;;9.18;nan;101881.53;5036330;28;20037;-87
2023/01/03 11:29:57;;;;;;;5.25;2.42;;;;;;;9.22;nan;101894.38;5020175;28;20563;-87
2023/01/03 11:33:00;;;;;;;4.45;2.50;;;;;;;9.29;nan;101877.16;4990313;28;20119;-87
2023/01/03 11:35:38;;;;;;;7.85;2.67;;;;;;;9.32;nan;101873.47;5029912;28;20033;-87
2023/01/03 11:38:23;;;;;;;4.18;2.78;;;;;;;9.36;nan;101874.91;5008965;28;20103;-87
2023/01/03 11:41:16;;;;;;;5.18;2.88;;;;;;;9.39;nan;101879.13;5011212;28;20037;-87
2023/01/03 11:44:26;;;;;;;6.18;2.80;;;;;;;9.35;nan;101874.09;5016092;28;20047;-87
2023/01/03 11:47:22;;;;;;;4.60;2.85;;;;;;;9.41;nan;101874.59;5008478;28;20049;-86
2023/01/03 11:50:00;;;;;;;4.32;2.78;;;;;;;9.42;nan;101869.22;4998939;28;20147;-87
2023/01/03 11:52:35;;;;;;;3.05;2.40;;;;;;;9.47;nan;101869.72;4991374;28;20684;-87
2023/01/03 11:55:31;;;;;;;3.75;2.60;;;;;;;9.46;nan;101865.41;5003006;28;20041;-86
2023/01/03 11:58:27;;;;;;;3.67;2.30;;;;;;;9.57;nan;101869.88;5027013;28;20034;-86
2023/01/03 12:01:41;;;;;;;3.70;2.22;;;;;;;9.65;nan;101871.94;5006950;28;20061;-86
2023/01/03 12:04:48;;;;;;;4.55;2.58;;;;;;;9.64;nan;101865.84;5021219;28;20052;-87
2023/01/03 12:07:43;;;;;;;3.15;2.28;;;;;;;9.66;nan;101868.38;4975818;28;20034;-87
2023/01/03 12:10:13;;;;;;;3.22;2.35;;;;;;;9.67;nan;101867.41;5002300;28;20049;-87
2023/01/03 12:13:17;;;;;;;4.00;2.10;;;;;;;9.64;nan;101865.84;5033284;28;20096;-87
2023/01/03 12:16:09;;;;;;;3.63;2.40;;;;;;;9.68;nan;101863.81;5017670;28;20044;-86
2023/01/03 12:18:49;;;;;;;3.72;2.25;;;;;;;9.73;nan;101856.41;5016210;28;20038;-87
2023/01/03 12:21:20;;;;;;;3.88;2.33;;;;;;;9.79;nan;101862.03;5010522;28;20158;-87
2023/01/03 12:23:58;;;;;;;3.65;2.40;;;;;;;9.83;nan;101851.28;5007835;28;20129;-88
2023/01/03 12:26:31;;;;;;;4.13;2.40;;;;;;;9.87;nan;101856.22;4996594;28;20031;-87
2023/01/03 12:29:32;;;;;;;3.35;2.45;;;;;;;9.91;nan;101854.16;5015381;28;20040;-86
2023/01/03 12:32:22;;;;;;;3.83;2.15;;;;;;;9.98;nan;101850.94;5012454;28;20062;-86
2023/01/03 12:35:16;;;;;;;3.73;2.43;;;;;;;10.12;nan;101846.44;5005321;28;20038;-87
2023/01/03 12:37:48;;;;;;;5.25;2.67;;;;;;;10.28;nan;101846.13;4997569;28;20038;-87
2023/01/03 12:40:25;;;;;;;4.68;2.70;;;;;;;10.33;nan;101849.28;5014530;28;20038;-87
2023/01/03 12:43:12;;;;;;;3.40;2.30;;;;;;;10.41;nan;101850.34;5017270;28;20095;-87
2023/01/03 12:46:23;;;;;;;3.92;2.80;;;;;;;10.47;nan;101850.88;4997723;28;20042;-86
2023/01/03 12:49:14;;;;;;;3.08;2.15;;;;;;;10.51;nan;101853.16;5004893;28;20114;-88
2023/01/03 12:51:44;;;;;;;5.78;2.85;;;;;;;10.61;nan;101848.84;5000084;28;20044;-86
2023/01/03 12:54:36;;;;;;;4.88;2.53;;;;;;;10.58;nan;101843.78;5007246;28;20121;-86
2023/01/03 12:57:15;;;;;;;;;;;;;;;10.54;nan;101837.03;5034956;28;20041;-87
2023/01/03 13:00:09;;;;;;;3.97;2.25;;;;;;;10.53;nan;101827.41;5017803;28;19917;-87
2023/01/03 13:03:00;;;;;;;3.45;2.45;;;;;;;10.53;nan;101827.41;5016360;28;20060;-87
2023/01/03 13:05:51;;;;;;;5.22;2.60;;;;;;;10.60;nan;101825.13;4998914;28;20586;-86
2023/01/03 13:08:38;;;;;;;3.22;1.73;;;;;;;10.51;nan;101818.78;4975151;28;20046;-86
2023/01/03 13:11:20;;;;;;;4.00;1.85;;;;;;;10.47;nan;101821.78;4998540;28;20112;-86
2023/01/03 13:14:24;;;;;;;3.85;1.73;;;;;;;10.40;nan;101816.94;5013680;28;20045;-86
2023/01/03 13:16:55;;;;;;;3.40;1.90;;;;;;;10.50;nan;101817.06;5003871;28;20086;-86
2023/01/03 13:19:20;;;;;;;2.92;1.70;;;;;;;10.55;nan;101811.44;5009460;28;20111;-87
2023/01/03 13:21:52;;;;;;;4.03;2.10;;;;;;;10.54;nan;101809.75;5013949;28;20760;-86
2023/01/03 13:24:53;;;;;;;2.83;1.80;;;;;;;10.62;nan;101804.69;5013058;28;20527;-86
2023/01/03 13:27:21;;;;;;;3.85;1.88;;;;;;;10.68;nan;101811.28;5023800;28;20037;-87
2023/01/03 13:29:57;;;;;;;2.75;1.60;;;;;;;10.75;nan;101801.91;5007403;28;20520;-86
2023/01/03 13:32:25;;;;;;;5.25;1.85;;;;;;;10.78;nan;101799.03;4993014;28;20058;-86
2023/01/03 13:34:56;;;;;;;3.47;1.80;;;;;;;10.82;nan;101796.03;5006996;28;20764;-87
2023/01/03 13:37:27;;;;;;;3.15;1.55;;;;;;;10.79;nan;101796.25;5003531;28;20124;-86